Time;durP1;ratioP1;P1;durP2;ratioP2;P2;SDS_P1;SDS_P2;PMS_P1;PMS_P2;Temp;Humidity;BMP_temperature;BMP_pressure;BME280_temperature;BME280_humidity;BME280_pressure;Samples;Min_cycle;Max_cycle;Signal;HPM_P1;HPM_P2
2023/08/22 00:06:39;;;;;;;10.15;5.25;;;;;;;24.58;100.00;100416.97;20966009;28;20056;-73
2023/08/22 00:17:03;;;;;;;9.73;5.07;;;;;;;24.48;100.00;100417.50;20961395;28;20044;-73
2023/08/22 00:27:26;;;;;;;11.93;4.93;;;;;;;24.43;100.00;100414.09;20977167;28;20068;-73
2023/08/22 00:37:50;;;;;;;11.90;4.63;;;;;;;24.49;100.00;100414.69;20960799;28;20102;-73
2023/08/22 00:48:13;;;;;;;9.27;4.78;;;;;;;24.35;100.00;100414.47;20946963;28;20143;-74
2023/08/22 00:58:39;;;;;;;8.30;4.47;;;;;;;24.25;100.00;100421.25;20953948;28;20431;-74
2023/08/22 01:09:10;;;;;;;11.50;5.25;;;;;;;24.00;100.00;100401.69;20943661;28;20044;-73
2023/08/22 01:19:35;;;;;;;12.63;4.97;;;;;;;23.69;100.00;100405.78;20952107;28;20052;-73
2023/08/22 01:30:08;;;;;;;8.30;4.70;;;;;;;23.66;100.00;100405.91;20963825;28;20052;-74
2023/08/22 01:40:33;;;;;;;12.57;5.38;;;;;;;24.03;100.00;100402.44;20945725;28;20071;-73
2023/08/22 01:50:59;;;;;;;9.00;5.00;;;;;;;23.90;100.00;100394.97;20950679;28;20098;-73
2023/08/22 02:01:23;;;;;;;9.77;4.80;;;;;;;23.60;100.00;100389.13;20944308;28;20049;-74
2023/08/22 02:11:47;;;;;;;8.93;4.55;;;;;;;23.66;100.00;100394.25;20954810;28;20110;-73
2023/08/22 02:22:10;;;;;;;8.18;5.15;;;;;;;23.71;100.00;100385.00;20960641;28;20604;-74
2023/08/22 02:32:36;;;;;;;9.93;5.00;;;;;;;23.82;100.00;100382.72;20964585;28;20587;-74
2023/08/22 02:43:00;;;;;;;9.98;5.28;;;;;;;23.72;100.00;100392.16;20971865;28;20052;-73
2023/08/22 02:53:27;;;;;;;10.05;4.68;;;;;;;23.68;100.00;100387.84;20956964;28;20136;-73
2023/08/22 03:03:53;;;;;;;11.30;5.20;;;;;;;23.74;100.00;100384.00;20958924;28;20065;-73
2023/08/22 03:14:19;;;;;;;13.15;5.75;;;;;;;23.74;100.00;100398.38;20957296;28;20048;-73
2023/08/22 03:24:42;;;;;;;10.23;5.35;;;;;;;23.62;100.00;100401.59;20954218;28;20053;-74
2023/08/22 03:35:08;;;;;;;11.10;5.32;;;;;;;23.50;100.00;100407.50;20954042;28;20394;-73
2023/08/22 03:45:35;;;;;;;11.70;5.13;;;;;;;23.53;100.00;100409.19;20961455;28;20052;-73
2023/08/22 03:55:59;;;;;;;9.93;5.07;;;;;;;23.58;100.00;100409.88;20955951;28;20051;-73
2023/08/22 04:06:22;;;;;;;11.07;4.82;;;;;;;23.78;100.00;100418.84;20971486;28;20051;-74
2023/08/22 04:16:47;;;;;;;13.90;4.68;;;;;;;23.91;100.00;100429.06;20943282;28;20106;-73
2023/08/22 04:27:10;;;;;;;13.70;4.60;;;;;;;24.49;100.00;100436.28;20951220;28;20622;-74
2023/08/22 04:37:34;;;;;;;12.55;4.32;;;;;;;25.18;100.00;100430.28;20962891;28;20107;-74
2023/08/22 04:47:59;;;;;;;9.60;4.05;;;;;;;25.79;100.00;100445.19;20926048;28;20222;-73
2023/08/22 04:58:23;;;;;;;9.32;4.03;;;;;;;26.55;100.00;100448.31;20976386;28;20059;-74
2023/08/22 05:08:45;;;;;;;8.73;3.22;;;;;;;27.23;100.00;100457.09;20968097;28;20044;-73
2023/08/22 05:19:12;;;;;;;9.60;3.38;;;;;;;28.32;95.20;100444.19;20945549;28;20044;-74
2023/08/22 05:29:36;;;;;;;9.48;3.35;;;;;;;29.34;86.80;100452.03;20972133;28;20462;-73
2023/08/22 05:40:03;;;;;;;12.27;3.22;;;;;;;30.39;78.19;100453.75;20936210;28;20089;-74
2023/08/22 05:50:25;;;;;;;8.27;3.20;;;;;;;31.51;63.85;100460.91;20950303;28;20163;-74
2023/08/22 06:00:50;;;;;;;11.60;3.20;;;;;;;32.60;56.17;100456.03;20956911;28;20106;-74
2023/08/22 06:11:13;;;;;;;7.88;3.10;;;;;;;33.22;50.15;100465.44;20945020;28;20578;-74
2023/08/22 06:21:37;;;;;;;9.95;3.00;;;;;;;33.79;46.68;100466.16;20942226;28;20063;-74
2023/08/22 06:32:01;;;;;;;9.63;3.40;;;;;;;34.20;44.32;100470.78;20957858;28;20127;-74
2023/08/22 06:42:26;;;;;;;9.70;3.00;;;;;;;34.10;42.66;100470.72;20913156;28;20367;-73
2023/08/22 06:52:48;;;;;;;8.60;3.07;;;;;;;33.86;42.99;100481.94;20945048;28;20053;-74
2023/08/22 07:03:12;;;;;;;8.10;2.80;;;;;;;34.15;43.55;100486.75;20957096;28;20062;-75
2023/08/22 07:13:36;;;;;;;12.47;4.13;;;;;;;34.46;44.12;100501.44;20962959;28;20044;-74
2023/08/22 07:24:00;;;;;;;8.60;2.90;;;;;;;34.55;45.99;100509.69;20950100;28;20052;-74
2023/08/22 07:34:23;;;;;;;9.27;3.17;;;;;;;34.67;45.38;100518.69;20970113;28;20041;-74
2023/08/22 07:44:48;;;;;;;7.72;2.80;;;;;;;34.85;44.40;100521.72;20980983;28;20048;-74
2023/08/22 07:55:11;;;;;;;7.93;2.92;;;;;;;34.96;44.76;100530.72;20972161;28;20052;-74
2023/08/22 08:05:35;;;;;;;10.82;2.65;;;;;;;35.25;46.42;100541.84;20971060;28;20052;-74
2023/08/22 08:15:58;;;;;;;10.63;2.90;;;;;;;35.63;48.60;100552.06;20956120;28;20105;-74
2023/08/22 08:26:23;;;;;;;13.20;2.70;;;;;;;35.94;46.80;100559.22;20945735;28;20072;-74
2023/08/22 08:36:46;;;;;;;8.32;2.60;;;;;;;36.45;45.17;100569.03;20952996;28;20053;-74
2023/08/22 08:47:10;;;;;;;8.52;2.33;;;;;;;36.55;44.33;100569.03;20938816;28;20091;-73
2023/08/22 08:57:33;;;;;;;6.85;2.55;;;;;;;36.77;42.12;100571.47;20977219;28;20764;-74
2023/08/22 09:08:18;;;;;;;6.38;2.42;;;;;;;37.07;42.66;100562.09;20957913;28;20630;-74
2023/08/22 09:18:42;;;;;;;11.63;2.92;;;;;;;37.18;43.48;100563.81;20954202;28;20060;-75
2023/08/22 09:29:08;;;;;;;5.45;2.55;;;;;;;37.55;42.56;100561.84;20950650;28;20063;-74
2023/08/22 09:39:33;;;;;;;11.20;2.53;;;;;;;37.59;42.37;100560.59;20952342;28;20048;-74
2023/08/22 09:50:01;;;;;;;10.23;2.55;;;;;;;37.86;42.49;100565.19;20940730;28;20056;-74
2023/08/22 10:00:26;;;;;;;8.27;2.28;;;;;;;37.82;42.29;100553.59;20956067;28;20040;-75
2023/08/22 10:10:51;;;;;;;9.82;2.75;;;;;;;38.02;43.12;100558.94;20927303;28;20511;-74
2023/08/22 10:21:14;;;;;;;11.23;2.50;;;;;;;37.91;42.97;100554.53;20936925;28;20056;-74
2023/08/22 10:32:22;;;;;;;10.75;2.85;;;;;;;37.40;43.21;100546.91;20955508;28;20468;-74
2023/08/22 10:42:51;;;;;;;11.90;3.00;;;;;;;37.53;42.27;100563.06;20984499;28;20094;-74
2023/08/22 10:53:30;;;;;;;13.25;2.83;;;;;;;37.27;41.54;100565.66;20996054;28;20040;-74
2023/08/22 11:03:53;;;;;;;11.10;3.28;;;;;;;37.08;41.86;100561.09;20976975;28;20044;-74
2023/08/22 11:14:17;;;;;;;8.90;2.60;;;;;;;36.73;41.57;100565.41;20969036;28;20044;-74
2023/08/22 11:24:42;;;;;;;9.40;2.75;;;;;;;36.53;41.13;100560.94;20969988;28;20114;-74
2023/08/22 11:35:08;;;;;;;9.82;2.83;;;;;;;36.50;43.53;100552.09;20999683;28;20044;-74
2023/08/22 11:45:31;;;;;;;6.10;2.28;;;;;;;36.77;42.86;100554.94;20950090;28;20044;-74
2023/08/22 11:55:56;;;;;;;12.98;2.88;;;;;;;36.53;42.35;100554.56;20948383;28;20055;-74
2023/08/22 12:06:18;;;;;;;10.20;2.60;;;;;;;36.56;43.37;100546.88;20955784;28;20481;-73
2023/08/22 12:16:42;;;;;;;9.35;2.78;;;;;;;36.43;46.00;100546.31;20955077;28;20133;-74
2023/08/22 12:27:05;;;;;;;10.97;2.90;;;;;;;36.39;46.46;100558.63;20949735;28;20052;-73
2023/08/22 12:37:29;;;;;;;16.77;3.38;;;;;;;36.12;48.53;100562.09;20939727;28;20045;-73
2023/08/22 12:47:53;;;;;;;10.70;2.80;;;;;;;35.91;48.68;100556.72;20974036;28;20048;-73
2023/08/22 12:58:18;;;;;;;10.93;2.88;;;;;;;35.74;47.31;100531.84;20964953;28;20051;-74
2023/08/22 13:08:41;;;;;;;13.40;2.90;;;;;;;35.60;49.39;100543.22;20963362;28;20048;-74
2023/08/22 13:19:06;;;;;;;13.38;3.22;;;;;;;35.26;49.98;100546.31;20988382;28;20401;-74
2023/08/22 13:29:28;;;;;;;11.02;2.97;;;;;;;35.06;52.68;100539.84;20948502;28;20048;-74
2023/08/22 13:39:52;;;;;;;8.65;2.90;;;;;;;34.79;52.41;100545.94;20939642;28;20090;-74
2023/08/22 13:50:15;;;;;;;10.65;3.10;;;;;;;34.58;52.78;100546.97;21015754;28;20056;-74
2023/08/22 14:00:38;;;;;;;15.10;3.00;;;;;;;34.50;52.94;100544.91;20945877;28;20542;-73
2023/08/22 14:11:01;;;;;;;14.02;3.63;;;;;;;34.49;53.04;100540.41;20957596;28;20048;-73
2023/08/22 14:21:25;;;;;;;12.50;3.15;;;;;;;34.51;53.12;100554.88;20979580;28;20063;-71
2023/08/22 14:31:48;;;;;;;13.10;3.28;;;;;;;34.47;52.95;100547.91;20941534;28;20056;-73
2023/08/22 14:42:12;;;;;;;14.10;3.30;;;;;;;34.35;57.91;100543.50;20963367;28;20052;-73
2023/08/22 14:52:35;;;;;;;11.55;3.50;;;;;;;33.95;61.33;100548.75;20961224;28;20055;-73
2023/08/22 15:02:59;;;;;;;12.80;4.00;;;;;;;33.45;67.58;100555.75;20951931;28;20056;-73
2023/08/22 15:13:21;;;;;;;11.80;4.25;;;;;;;33.01;72.16;100551.16;20997231;28;20040;-73
2023/08/22 15:23:45;;;;;;;13.77;4.63;;;;;;;32.53;76.21;100558.66;20949657;28;20114;-73
2023/08/22 15:34:08;;;;;;;21.73;4.65;;;;;;;32.28;79.13;100551.53;20967773;28;20131;-74
2023/08/22 15:44:32;;;;;;;12.85;4.90;;;;;;;32.05;88.00;100559.59;20945046;28;20064;-73
2023/08/22 15:54:55;;;;;;;16.90;5.30;;;;;;;31.56;100.00;100559.72;20967085;28;20056;-72
2023/08/22 16:05:20;;;;;;;13.60;4.80;;;;;;;31.30;100.00;100544.41;20953438;28;20485;-73
2023/08/22 16:15:46;;;;;;;9.98;4.72;;;;;;;31.07;100.00;100556.13;20965575;28;20049;-73
2023/08/22 16:26:11;;;;;;;15.83;4.70;;;;;;;30.94;100.00;100555.25;20955293;28;20110;-73
2023/08/22 16:36:33;;;;;;;13.50;5.38;;;;;;;30.69;100.00;100570.66;20975321;28;20045;-75
2023/08/22 16:46:57;;;;;;;15.63;5.07;;;;;;;30.57;100.00;100576.97;20941954;28;20079;-73
2023/08/22 16:57:20;;;;;;;15.38;5.53;;;;;;;30.37;100.00;100591.09;20935223;28;20122;-73
2023/08/22 17:07:44;;;;;;;15.73;5.18;;;;;;;30.18;100.00;100591.47;20957114;28;20040;-74
2023/08/22 17:18:07;;;;;;;20.40;5.97;;;;;;;30.03;100.00;100600.69;20943502;28;20044;-73
2023/08/22 17:28:31;;;;;;;23.67;6.00;;;;;;;29.86;100.00;100617.28;20925228;28;20045;-74
2023/08/22 17:38:54;;;;;;;19.85;6.05;;;;;;;29.54;100.00;100613.94;20946076;28;20056;-74
2023/08/22 17:49:20;;;;;;;18.02;6.65;;;;;;;29.42;100.00;100629.22;20983800;28;20202;-74
2023/08/22 17:59:43;;;;;;;22.13;6.50;;;;;;;29.20;100.00;100636.97;20957328;28;20044;-74
2023/08/22 18:10:08;;;;;;;14.50;5.38;;;;;;;28.92;100.00;100635.13;20945496;28;20055;-75
2023/08/22 18:20:31;;;;;;;15.55;5.07;;;;;;;28.76;100.00;100637.91;20952488;28;20040;-74
2023/08/22 18:30:57;;;;;;;12.75;6.03;;;;;;;28.54;100.00;100665.50;20933947;28;20044;-74
2023/08/22 18:41:20;;;;;;;14.65;5.22;;;;;;;28.25;100.00;100687.22;20939474;28;20164;-73
2023/08/22 18:51:44;;;;;;;16.23;5.35;;;;;;;28.12;100.00;100682.47;20930425;28;20056;-74
2023/08/22 19:02:07;;;;;;;14.90;6.90;;;;;;;27.87;100.00;100689.41;20957249;28;20051;-74
2023/08/22 19:12:31;;;;;;;12.93;5.43;;;;;;;27.73;100.00;100685.63;20952699;28;20094;-74
2023/08/22 19:22:53;;;;;;;12.18;5.78;;;;;;;27.69;100.00;100696.75;20960599;28;20056;-74
2023/08/22 19:33:18;;;;;;;14.82;6.00;;;;;;;27.63;100.00;100699.81;20962779;28;20048;-74
2023/08/22 19:43:40;;;;;;;15.02;6.13;;;;;;;27.42;100.00;100699.13;20988380;28;20447;-74
2023/08/22 19:54:04;;;;;;;11.48;5.57;;;;;;;27.38;100.00;100701.13;20976426;28;20189;-74
2023/08/22 20:04:27;;;;;;;16.95;6.15;;;;;;;27.32;100.00;100703.28;20955079;28;20045;-74
2023/08/22 20:14:52;;;;;;;14.05;6.18;;;;;;;27.35;100.00;100700.44;20956339;28;20041;-74
2023/08/22 20:25:15;;;;;;;13.52;7.35;;;;;;;27.25;100.00;100683.78;20948916;28;20515;-73
2023/08/22 20:35:39;;;;;;;14.43;5.82;;;;;;;26.88;100.00;100693.00;20949007;28;20563;-73
2023/08/22 20:46:02;;;;;;;11.50;5.35;;;;;;;26.78;100.00;100680.03;20976466;28;20049;-73
2023/08/22 20:56:27;;;;;;;16.08;6.18;;;;;;;26.84;100.00;100680.56;20950199;28;20362;-73
2023/08/22 21:06:49;;;;;;;14.85;5.90;;;;;;;26.77;100.00;100683.69;20943590;28;20699;-73
2023/08/22 21:17:13;;;;;;;16.48;6.18;;;;;;;26.45;100.00;100671.81;20958935;28;20048;-73
2023/08/22 21:27:36;;;;;;;17.38;6.72;;;;;;;26.25;100.00;100664.72;20941975;28;20060;-74
2023/08/22 21:38:00;;;;;;;14.45;6.78;;;;;;;26.12;100.00;100671.66;20945014;28;20110;-73
2023/08/22 21:48:22;;;;;;;16.55;6.47;;;;;;;26.19;100.00;100659.56;20985504;28;20055;-74
2023/08/22 21:58:47;;;;;;;16.48;7.25;;;;;;;26.18;100.00;100653.28;20952230;28;20696;-73
2023/08/22 22:09:10;;;;;;;14.07;6.68;;;;;;;26.05;100.00;100646.75;20958873;28;20053;-74
2023/08/22 22:19:33;;;;;;;19.90;7.88;;;;;;;25.98;100.00;100641.72;20984938;28;20044;-73
2023/08/22 22:29:56;;;;;;;17.83;7.88;;;;;;;25.98;100.00;100630.88;20981982;28;20282;-73
2023/08/22 22:40:21;;;;;;;15.57;7.03;;;;;;;25.92;100.00;100614.97;21001674;28;20374;-73
2023/08/22 22:50:43;;;;;;;15.50;8.43;;;;;;;25.52;100.00;100605.19;20971157;28;20500;-73
2023/08/22 23:01:08;;;;;;;14.95;6.82;;;;;;;25.24;100.00;100601.13;20977309;28;20056;-73
2023/08/22 23:11:32;;;;;;;13.95;7.18;;;;;;;25.21;100.00;100597.66;20967049;28;20048;-73
2023/08/22 23:21:55;;;;;;;13.38;6.93;;;;;;;25.20;100.00;100590.53;20993957;28;20126;-73
2023/08/22 23:32:18;;;;;;;12.05;6.65;;;;;;;24.96;100.00;100589.84;20952147;28;20090;-73
2023/08/22 23:42:42;;;;;;;13.27;7.22;;;;;;;24.63;100.00;100592.22;20958665;28;20431;-73
2023/08/22 23:53:05;;;;;;;14.45;7.75;;;;;;;24.71;100.00;100592.75;20967511;28;20066;-73
